Time;durP1;ratioP1;P1;durP2;ratioP2;P2;SDS_P1;SDS_P2;PMS_P1;PMS_P2;Temp;Humidity;BMP_temperature;BMP_pressure;BME280_temperature;BME280_humidity;BME280_pressure;Samples;Min_cycle;Max_cycle;Signal;HPM_P1;HPM_P2
2021/09/02 00:01:24;;;;;;;4.58;3.87;;;;;;;23.70;50.37;99084.43;1779994;80;21056;-68
2021/09/02 00:03:50;;;;;;;3.85;3.33;;;;;;;23.69;50.48;99078.20;1735636;81;21314;-68
2021/09/02 00:06:17;;;;;;;5.45;3.90;;;;;;;23.68;50.41;99082.02;1721122;81;21157;-68
2021/09/02 00:08:43;;;;;;;5.00;3.92;;;;;;;23.67;50.32;99077.66;1704278;82;21079;-68
2021/09/02 00:11:10;;;;;;;3.50;3.20;;;;;;;23.66;50.41;99077.92;1721226;81;21144;-67
2021/09/02 00:13:38;;;;;;;4.33;3.92;;;;;;;23.64;50.42;99075.51;1720157;81;21005;-67
2021/09/02 00:16:06;;;;;;;6.37;3.80;;;;;;;23.62;50.40;99074.94;1733703;82;21060;-68
2021/09/02 00:18:33;;;;;;;4.03;3.58;;;;;;;23.62;50.45;99079.55;1733335;81;21151;-66
2021/09/02 00:21:01;;;;;;;4.28;3.75;;;;;;;23.61;50.36;99078.75;1733570;81;21549;-66
2021/09/02 00:23:27;;;;;;;4.83;4.05;;;;;;;23.60;50.33;99080.37;1735568;81;21116;-66
2021/09/02 00:25:54;;;;;;;4.20;3.80;;;;;;;23.59;50.30;99088.24;1735640;81;21006;-66
2021/09/02 00:28:22;;;;;;;4.70;4.30;;;;;;;23.57;50.32;99084.44;1735637;81;21068;-66
2021/09/02 00:30:49;;;;;;;5.60;4.08;;;;;;;23.56;50.36;99080.09;1734264;81;21109;-68
2021/09/02 00:33:19;;;;;;;5.28;3.72;;;;;;;23.56;50.37;99086.86;1721902;82;21484;-67
2021/09/02 00:35:46;;;;;;;4.20;3.80;;;;;;;23.55;50.35;99083.90;1702297;82;21110;-68
2021/09/02 00:38:12;;;;;;;5.83;4.47;;;;;;;23.55;50.38;99086.61;1753395;81;21044;-67
2021/09/02 00:40:39;;;;;;;4.40;3.87;;;;;;;23.53;50.34;99083.36;1752389;81;21040;-68
2021/09/02 00:43:05;;;;;;;5.35;4.12;;;;;;;23.52;50.35;99092.56;1711960;82;21922;-67
2021/09/02 00:45:32;;;;;;;4.45;3.67;;;;;;;23.51;50.33;99099.88;1718058;82;21065;-67
2021/09/02 00:47:58;;;;;;;5.20;4.15;;;;;;;23.50;50.29;99089.30;1709871;82;21054;-67
2021/09/02 00:50:27;;;;;;;4.58;4.15;;;;;;;23.49;50.30;99091.76;1727878;81;21036;-69
2021/09/02 00:52:53;;;;;;;6.58;3.83;;;;;;;23.48;50.28;99086.05;1743908;81;21047;-67
2021/09/02 00:55:19;;;;;;;4.80;4.33;;;;;;;23.46;50.31;99089.57;1736775;81;21735;-67
2021/09/02 00:57:46;;;;;;;4.10;3.72;;;;;;;23.45;50.35;99086.58;1752500;81;21051;-69
2021/09/02 01:00:15;;;;;;;5.80;4.22;;;;;;;23.43;50.33;99088.73;1743086;81;22143;-69
2021/09/02 01:02:45;;;;;;;4.80;4.35;;;;;;;23.42;50.39;99093.36;1727177;81;21092;-67
2021/09/02 01:05:20;;;;;;;6.30;4.40;;;;;;;23.41;50.48;99089.55;1731545;81;21037;-68
2021/09/02 01:07:47;;;;;;;7.00;4.08;;;;;;;23.40;50.46;99085.23;1730983;81;21126;-68
2021/09/02 01:10:14;;;;;;;5.10;4.25;;;;;;;23.39;50.57;99089.02;1728938;81;21526;-68
2021/09/02 01:12:48;;;;;;;4.90;4.40;;;;;;;23.38;50.55;99090.11;1735937;81;21041;-67
2021/09/02 01:17:43;;;;;;;4.47;4.00;;;;;;;23.35;50.61;99099.56;1734606;81;21014;-68
2021/09/02 01:20:14;;;;;;;5.42;4.30;;;;;;;23.33;50.62;99093.60;1718258;82;21128;-67
2021/09/02 01:22:42;;;;;;;4.42;4.03;;;;;;;23.31;50.69;99093.89;1707915;82;21016;-67
2021/09/02 01:25:14;;;;;;;5.60;4.83;;;;;;;23.29;50.69;99091.97;1730940;81;21098;-68
2021/09/02 01:27:45;;;;;;;5.58;4.28;;;;;;;23.30;50.71;99094.16;1724216;82;21061;-68
2021/09/02 01:30:13;;;;;;;5.28;4.15;;;;;;;23.28;50.77;99087.64;1734392;81;21005;-68
2021/09/02 01:32:40;;;;;;;4.25;3.85;;;;;;;23.28;50.77;99093.61;1726335;81;21091;-67
2021/09/02 01:35:09;;;;;;;4.50;4.10;;;;;;;23.27;50.79;99089.27;1747084;81;21089;-67
2021/09/02 01:37:42;;;;;;;4.28;3.87;;;;;;;23.27;50.79;99091.97;1740411;81;21027;-67
2021/09/02 01:40:16;;;;;;;5.00;4.47;;;;;;;23.26;50.86;99092.52;1752050;81;21093;-66
2021/09/02 01:42:43;;;;;;;5.33;4.30;;;;;;;23.25;50.82;99088.16;1752602;81;21049;-67
2021/09/02 01:45:11;;;;;;;4.78;4.28;;;;;;;23.23;50.86;99083.55;1765348;80;21125;-67
2021/09/02 01:47:37;;;;;;;4.70;4.00;;;;;;;23.22;50.94;99094.66;1765670;81;22001;-67
2021/09/02 01:50:16;;;;;;;4.97;4.47;;;;;;;23.23;50.93;99094.39;1742034;80;21013;-67
2021/09/02 01:52:44;;;;;;;5.85;4.33;;;;;;;23.22;50.99;99086.01;1730728;81;21521;-67
2021/09/02 01:55:10;;;;;;;4.95;4.25;;;;;;;23.23;51.04;99082.75;1728469;82;21484;-68
2021/09/02 01:57:37;;;;;;;6.10;4.72;;;;;;;23.21;51.05;99078.95;1739953;81;21796;-66
2021/09/02 02:00:06;;;;;;;5.37;4.50;;;;;;;23.21;51.09;99082.20;1737416;81;21046;-67
2021/09/02 02:02:32;;;;;;;4.55;4.12;;;;;;;23.20;51.12;99078.69;1741828;81;21072;-67
2021/09/02 02:04:58;;;;;;;4.25;3.85;;;;;;;23.21;51.11;99080.85;1735569;81;21012;-67
2021/09/02 02:07:25;;;;;;;4.62;4.22;;;;;;;23.20;51.10;99084.63;1735281;81;21041;-66
2021/09/02 02:09:53;;;;;;;4.58;4.17;;;;;;;23.20;51.09;99081.40;1749816;81;21185;-67
2021/09/02 02:12:20;;;;;;;4.65;4.17;;;;;;;23.18;51.14;99084.92;1732975;81;20997;-65
2021/09/02 02:14:46;;;;;;;4.35;3.90;;;;;;;23.19;51.16;99085.72;1733099;81;21581;-65
2021/09/02 02:17:13;;;;;;;5.62;4.20;;;;;;;23.18;51.16;99084.92;1725615;81;21072;-65
2021/09/02 02:19:40;;;;;;;4.75;4.30;;;;;;;23.16;51.24;99089.24;1762681;81;21481;-65
2021/09/02 02:22:06;;;;;;;5.75;4.22;;;;;;;23.16;51.29;99095.21;1747328;81;23180;-66
2021/09/02 02:24:33;;;;;;;6.03;4.65;;;;;;;23.16;51.33;99091.15;1732043;81;21573;-67
2021/09/02 02:26:59;;;;;;;5.10;4.58;;;;;;;23.07;51.34;99082.70;1734296;81;21059;-66
2021/09/02 02:29:25;;;;;;;7.08;4.55;;;;;;;23.16;51.33;99096.56;1728890;81;21074;-66
2021/09/02 02:31:52;;;;;;;4.53;4.00;;;;;;;23.15;51.33;99099.79;1766229;80;20988;-66
2021/09/02 02:34:18;;;;;;;5.22;4.30;;;;;;;23.14;51.26;99100.05;1757251;81;21134;-66
2021/09/02 02:36:45;;;;;;;6.72;4.70;;;;;;;23.14;51.30;99109.02;1750810;81;21009;-65
2021/09/02 02:39:11;;;;;;;5.50;4.70;;;;;;;23.14;51.26;99101.41;1775840;79;21020;-66
2021/09/02 02:41:37;;;;;;;5.58;4.12;;;;;;;23.13;51.31;99103.31;1787073;79;20998;-66
2021/09/02 02:44:05;;;;;;;4.67;4.17;;;;;;;23.13;51.25;99100.60;1764335;79;21031;-66
2021/09/02 02:46:31;;;;;;;6.12;4.60;;;;;;;23.13;51.25;99098.44;1762932;79;21194;-67
2021/09/02 02:48:59;;;;;;;5.08;4.67;;;;;;;23.13;51.29;99102.50;1762034;79;21048;-66
2021/09/02 02:51:25;;;;;;;4.62;4.22;;;;;;;23.12;51.23;99096.80;1768025;79;21053;-66
2021/09/02 02:53:52;;;;;;;5.00;4.08;;;;;;;23.11;51.24;99096.54;1786474;79;21000;-68
2021/09/02 02:56:18;;;;;;;4.42;4.03;;;;;;;23.12;51.20;99100.86;1763577;79;21055;-67
2021/09/02 02:58:48;;;;;;;4.97;4.22;;;;;;;23.12;51.25;99099.50;1762768;80;21143;-68
2021/09/02 03:01:15;;;;;;;7.08;5.85;;;;;;;23.11;51.23;99097.89;1762692;79;20992;-67
2021/09/02 03:03:42;;;;;;;5.05;4.40;;;;;;;23.11;51.25;99101.41;1763623;80;21045;-67
2021/09/02 03:06:10;;;;;;;6.87;4.12;;;;;;;23.11;51.20;99100.05;1771723;79;21573;-69
2021/09/02 03:08:37;;;;;;;5.00;4.20;;;;;;;23.11;51.20;99102.77;1768296;79;21039;-68
2021/09/02 03:11:04;;;;;;;4.40;4.00;;;;;;;23.11;51.21;99099.25;1769076;79;21894;-70
2021/09/02 03:13:32;;;;;;;4.78;4.37;;;;;;;23.11;51.18;99096.54;1754184;79;21025;-67
2021/09/02 03:16:00;;;;;;;5.78;4.42;;;;;;;23.10;51.21;99101.67;1788107;79;21554;-66
2021/09/02 03:18:27;;;;;;;5.95;4.65;;;;;;;23.10;51.15;99102.50;1793586;79;21013;-67
2021/09/02 03:20:55;;;;;;;4.75;4.17;;;;;;;23.09;51.14;99096.80;1778195;79;21127;-66
2021/09/02 03:23:21;;;;;;;5.58;4.75;;;;;;;23.08;51.32;99103.83;1707810;82;21006;-67
2021/09/02 03:25:48;;;;;;;4.92;4.53;;;;;;;23.08;51.29;99103.31;1729679;81;21033;-66
2021/09/02 03:28:14;;;;;;;4.92;4.30;;;;;;;23.08;51.27;99099.25;1705109;83;21060;-68
2021/09/02 03:30:41;;;;;;;6.78;4.22;;;;;;;23.07;51.41;99100.31;1736308;81;21513;-67
2021/09/02 03:33:08;;;;;;;6.25;4.22;;;;;;;23.08;51.45;99101.13;1736545;81;21487;-72
2021/09/02 03:35:35;;;;;;;4.72;4.03;;;;;;;23.07;51.35;99096.25;1754845;81;21102;-73
2021/09/02 03:38:01;;;;;;;6.12;4.08;;;;;;;23.10;51.95;99101.67;1728034;81;21166;-75
2021/09/02 03:40:28;;;;;;;4.85;4.30;;;;;;;23.15;52.19;99104.41;1733784;81;21055;-72
2021/09/02 03:42:54;;;;;;;4.45;4.03;;;;;;;23.21;52.20;99099.27;1725154;81;21014;-72
2021/09/02 03:45:21;;;;;;;4.97;4.47;;;;;;;23.28;51.98;99096.32;1722173;82;21072;-72
2021/09/02 03:47:48;;;;;;;5.85;3.92;;;;;;;23.32;51.87;99111.77;1741990;81;21129;-72
2021/09/02 03:50:17;;;;;;;4.40;3.83;;;;;;;;;;1750309;81;21518;-73
2021/09/02 03:52:43;;;;;;;4.40;3.87;;;;;;;23.41;51.63;99103.94;1734896;81;21044;-73
2021/09/02 03:55:11;;;;;;;4.92;3.62;;;;;;;23.45;51.53;99105.55;1735131;81;21998;-75
2021/09/02 03:57:39;;;;;;;4.60;4.20;;;;;;;23.48;51.35;99110.45;1733843;81;21072;-73
2021/09/02 04:00:09;;;;;;;6.00;4.20;;;;;;;23.50;51.26;99110.44;1733788;81;21144;-74
2021/09/02 04:02:36;;;;;;;6.35;4.08;;;;;;;23.52;51.25;99112.34;1725792;81;21013;-73
2021/09/02 04:05:03;;;;;;;4.72;4.22;;;;;;;23.55;51.12;99113.72;1731006;81;21007;-72
2021/09/02 04:07:30;;;;;;;8.20;4.58;;;;;;;23.58;50.98;99117.78;1746521;81;21061;-73
2021/09/02 04:09:56;;;;;;;5.12;4.25;;;;;;;23.59;50.83;99123.48;1729048;81;21022;-74
2021/09/02 04:12:23;;;;;;;5.72;4.58;;;;;;;23.60;50.83;99129.97;1697046;82;21167;-73
2021/09/02 04:14:49;;;;;;;6.42;3.95;;;;;;;23.61;50.85;99126.19;1730674;81;21568;-73
2021/09/02 04:17:15;;;;;;;5.35;4.60;;;;;;;23.62;50.66;99126.45;1720418;82;21010;-72
2021/09/02 04:19:44;;;;;;;5.20;4.22;;;;;;;23.64;50.75;99128.38;1731607;82;21477;-72
2021/09/02 04:22:10;;;;;;;4.97;4.12;;;;;;;23.65;50.57;99129.99;1727411;81;21049;-73
2021/09/02 04:24:37;;;;;;;7.00;4.33;;;;;;;23.68;50.59;99132.70;1727425;81;21064;-75
2021/09/02 04:27:04;;;;;;;5.30;4.25;;;;;;;23.69;50.60;99131.63;1699662;82;21518;-74
2021/09/02 04:29:31;;;;;;;4.12;3.72;;;;;;;23.70;50.45;99136.78;1720486;83;21061;-78
2021/09/02 04:31:57;;;;;;;4.92;3.95;;;;;;;23.72;50.41;99133.27;1742085;79;21479;-71
2021/09/02 04:34:24;;;;;;;4.70;3.80;;;;;;;23.73;50.32;99138.14;1762814;80;21045;-73
2021/09/02 04:36:50;;;;;;;4.45;3.98;;;;;;;23.73;50.24;99129.45;1762933;79;21041;-74
2021/09/02 04:39:17;;;;;;;4.58;3.92;;;;;;;23.75;50.17;99132.70;1761877;80;21063;-71
2021/09/02 04:41:43;;;;;;;5.70;4.40;;;;;;;23.77;50.13;99141.13;1762240;79;21044;-70
2021/09/02 04:44:09;;;;;;;4.25;3.85;;;;;;;23.78;50.13;99136.83;1765553;79;20999;-75
2021/09/02 04:46:36;;;;;;;7.33;4.37;;;;;;;23.78;50.07;99138.19;1775852;80;21460;-76
2021/09/02 04:49:03;;;;;;;4.30;3.90;;;;;;;23.79;50.12;99136.28;1751876;81;21362;-77
2021/09/02 04:51:29;;;;;;;4.70;4.25;;;;;;;23.79;50.13;99127.59;1764487;79;20992;-76
2021/09/02 04:53:57;;;;;;;4.03;3.52;;;;;;;23.80;49.97;99136.02;1764026;79;21335;-76
2021/09/02 04:56:23;;;;;;;6.67;4.75;;;;;;;23.82;49.90;99141.17;1766257;79;21116;-75
2021/09/02 04:58:51;;;;;;;8.43;4.80;;;;;;;23.83;50.23;99131.39;1761655;79;21058;-76
2021/09/02 05:01:17;;;;;;;11.48;5.17;;;;;;;23.84;51.11;99139.00;1762750;79;21140;-74
2021/09/02 05:03:44;;;;;;;9.28;4.95;;;;;;;23.85;51.66;99142.77;1747750;81;21055;-75
2021/09/02 05:06:11;;;;;;;15.63;5.03;;;;;;;23.88;51.69;99140.09;1739671;81;21042;-75
2021/09/02 05:08:37;;;;;;;7.03;5.20;;;;;;;23.90;52.01;99152.83;1729237;81;21030;-74
2021/09/02 05:11:05;;;;;;;6.92;5.12;;;;;;;23.92;52.14;99139.81;1738198;81;21119;-75
2021/09/02 05:13:33;;;;;;;6.67;4.67;;;;;;;23.94;52.14;99148.49;1762790;80;21055;-74
2021/09/02 05:16:00;;;;;;;8.40;4.30;;;;;;;23.95;51.97;99141.97;1762871;80;21039;-74
2021/09/02 05:18:28;;;;;;;7.55;4.70;;;;;;;23.97;52.08;99139.83;1762653;80;21004;-75
2021/09/02 05:20:56;;;;;;;14.18;5.83;;;;;;;23.98;51.90;99134.66;1764743;80;21003;-74
2021/09/02 05:23:23;;;;;;;7.90;4.47;;;;;;;24.01;51.79;99126.51;1778846;79;21035;-75
2021/09/02 05:25:50;;;;;;;5.35;4.60;;;;;;;24.02;51.63;99133.02;1778037;80;21112;-75
2021/09/02 05:28:16;;;;;;;7.37;4.40;;;;;;;24.03;51.47;99131.95;1776151;79;21023;-75
2021/09/02 05:30:44;;;;;;;9.30;4.33;;;;;;;24.06;51.37;99134.66;1775463;80;21018;-75
2021/09/02 05:33:10;;;;;;;6.80;4.80;;;;;;;24.06;51.22;99134.10;1764120;79;21092;-76
2021/09/02 05:35:37;;;;;;;8.58;5.60;;;;;;;24.07;51.19;99139.81;1784340;79;21027;-75
2021/09/02 05:38:04;;;;;;;7.03;4.72;;;;;;;24.10;51.13;99138.45;1762778;80;21083;-74
2021/09/02 05:40:30;;;;;;;6.97;5.20;;;;;;;24.09;50.96;99132.22;1761651;80;20997;-76
2021/09/02 05:42:57;;;;;;;5.55;4.45;;;;;;;24.12;50.98;99134.92;1762362;79;21027;-76
2021/09/02 05:45:23;;;;;;;5.87;4.15;;;;;;;24.13;50.89;99134.66;1761925;79;21068;-76
2021/09/02 05:47:50;;;;;;;9.80;5.28;;;;;;;24.14;50.78;99134.94;1729047;81;21035;-75
2021/09/02 05:50:17;;;;;;;5.10;4.20;;;;;;;24.17;50.68;99142.27;1762470;80;21110;-75
2021/09/02 05:52:43;;;;;;;7.83;4.80;;;;;;;24.17;50.50;99138.19;1762110;80;21076;-74
2021/09/02 05:55:10;;;;;;;4.80;4.28;;;;;;;24.20;50.20;99140.34;1762950;80;21009;-75
2021/09/02 05:57:42;;;;;;;7.15;5.15;;;;;;;24.20;50.45;99141.14;1759583;79;21020;-75
2021/09/02 06:00:10;;;;;;;7.30;4.58;;;;;;;24.21;50.19;99143.34;1761250;80;21019;-74
2021/09/02 06:02:40;;;;;;;7.05;4.62;;;;;;;24.22;50.10;99149.02;1767652;79;22466;-75
2021/09/02 06:05:07;;;;;;;5.95;4.42;;;;;;;24.23;50.05;99150.11;1741409;80;21017;-75
2021/09/02 06:07:34;;;;;;;4.92;3.98;;;;;;;24.24;49.94;99149.56;1725108;81;21101;-75
2021/09/02 06:10:00;;;;;;;5.12;4.60;;;;;;;24.20;49.77;99137.08;1743062;81;21606;-75
2021/09/02 06:12:27;;;;;;;4.78;3.85;;;;;;;24.25;49.58;99152.02;1726738;81;21109;-75
2021/09/02 06:14:54;;;;;;;5.10;4.30;;;;;;;24.26;49.45;99156.89;1745252;81;21130;-74
2021/09/02 06:17:21;;;;;;;6.10;4.40;;;;;;;24.26;49.40;99164.51;1736561;81;21127;-74
2021/09/02 06:19:49;;;;;;;6.30;4.33;;;;;;;24.27;49.35;99176.98;1726949;81;21062;-76
2021/09/02 06:22:15;;;;;;;5.10;3.92;;;;;;;24.28;49.30;99174.55;1726365;81;21036;-75
2021/09/02 06:24:45;;;;;;;6.80;4.45;;;;;;;24.29;49.17;99178.87;1724192;81;21128;-75
2021/09/02 06:27:11;;;;;;;6.35;4.22;;;;;;;24.30;48.98;99179.16;1735146;81;21147;-74
2021/09/02 06:29:38;;;;;;;5.22;3.92;;;;;;;24.29;48.78;99195.70;1736774;81;21025;-75
2021/09/02 06:32:06;;;;;;;5.17;3.83;;;;;;;24.30;48.53;99185.94;1735211;81;21054;-75
2021/09/02 06:34:32;;;;;;;5.00;3.92;;;;;;;24.31;48.47;99192.18;1723962;82;21050;-73
2021/09/02 06:36:58;;;;;;;5.80;3.70;;;;;;;24.31;48.32;99190.27;1688404;83;21084;-73
2021/09/02 06:39:27;;;;;;;6.72;3.55;;;;;;;24.31;48.27;99198.97;1682516;82;21061;-76
2021/09/02 06:41:53;;;;;;;5.65;4.00;;;;;;;24.33;48.20;99183.22;1686845;83;21033;-74
2021/09/02 06:44:21;;;;;;;9.00;3.70;;;;;;;24.34;48.21;99190.29;1683409;83;21061;-73
2021/09/02 06:46:47;;;;;;;4.75;3.55;;;;;;;24.36;48.52;99180.49;1706923;82;21054;-73
2021/09/02 06:49:14;;;;;;;5.75;4.10;;;;;;;24.38;48.38;99183.22;1686090;82;21035;-72
2021/09/02 06:51:42;;;;;;;5.42;3.65;;;;;;;24.40;48.21;99190.55;1694497;82;21047;-72
2021/09/02 06:54:09;;;;;;;5.08;3.72;;;;;;;24.43;48.11;99187.27;1706665;81;21074;-73
2021/09/02 06:56:35;;;;;;;5.80;3.27;;;;;;;24.45;48.01;99191.08;1691952;82;21054;-73
2021/09/02 06:59:02;;;;;;;8.05;3.55;;;;;;;24.47;47.96;99191.09;1712465;82;21607;-72
2021/09/02 07:01:29;;;;;;;5.00;3.72;;;;;;;24.49;47.87;99186.20;1696183;82;21062;-74
2021/09/02 07:03:56;;;;;;;4.75;3.30;;;;;;;24.52;47.74;99199.25;1698981;82;21130;-72
2021/09/02 07:06:22;;;;;;;5.30;3.70;;;;;;;24.56;47.59;99190.02;1690448;81;21128;-73
2021/09/02 07:10:14;;;;;;;4.65;3.83;;;;;;;24.65;47.29;99198.44;1869503;76;22652;-73
2021/09/02 07:12:41;;;;;;;6.00;3.87;;;;;;;24.62;47.13;99210.64;1806246;77;21100;-74
2021/09/02 07:15:09;;;;;;;6.70;4.05;;;;;;;24.65;46.96;99204.67;1819449;77;21066;-72
2021/09/02 07:17:35;;;;;;;4.60;3.33;;;;;;;24.67;46.66;99205.77;1826543;77;21024;-74
2021/09/02 07:20:03;;;;;;;6.03;3.60;;;;;;;24.70;46.47;99211.44;1818925;78;21013;-71
2021/09/02 07:22:32;;;;;;;5.60;4.08;;;;;;;24.72;46.20;99207.09;1782016;79;21012;-73
2021/09/02 07:24:58;;;;;;;4.70;3.45;;;;;;;24.75;45.94;99208.46;1774878;78;20962;-73
2021/09/02 07:27:24;;;;;;;4.58;3.30;;;;;;;24.76;45.68;99212.23;1736544;80;21524;-72
2021/09/02 07:29:51;;;;;;;4.92;3.33;;;;;;;24.79;45.37;99213.61;1765480;78;20976;-73
2021/09/02 07:32:17;;;;;;;4.70;3.20;;;;;;;24.81;45.15;99211.44;1757171;78;21077;-73
2021/09/02 07:34:43;;;;;;;4.87;3.35;;;;;;;24.82;44.91;99212.52;1734133;79;21018;-73
2021/09/02 07:37:12;;;;;;;4.97;3.42;;;;;;;24.85;44.72;99209.80;1751225;78;21070;-73
2021/09/02 07:39:40;;;;;;;5.37;3.10;;;;;;;24.85;44.43;99198.38;1757223;78;21141;-74
2021/09/02 07:42:07;;;;;;;3.92;3.30;;;;;;;24.87;44.18;99211.69;1769061;78;21036;-75
2021/09/02 07:44:34;;;;;;;4.95;2.87;;;;;;;24.88;43.96;99212.78;1779475;78;21512;-74
2021/09/02 07:47:00;;;;;;;3.83;3.10;;;;;;;24.90;43.77;99210.59;1763062;78;21512;-75
2021/09/02 07:49:39;;;;;;;8.48;3.08;;;;;;;24.90;43.68;99206.52;1769647;78;22022;-73
2021/09/02 07:52:09;;;;;;;6.28;2.72;;;;;;;24.91;43.52;99206.77;1778144;78;21394;-71
2021/09/02 07:54:36;;;;;;;5.15;2.65;;;;;;;24.92;42.32;99204.89;1774053;78;21269;-68
2021/09/02 07:57:03;;;;;;;3.75;2.65;;;;;;;24.83;39.75;99197.03;1776131;78;21048;-70
2021/09/02 07:59:30;;;;;;;6.05;2.85;;;;;;;24.67;39.08;99179.96;1747945;80;21017;-70
2021/09/02 08:01:56;;;;;;;7.62;2.95;;;;;;;24.51;38.35;99190.84;1774555;79;21036;-68
2021/09/02 08:04:23;;;;;;;4.67;2.70;;;;;;;24.39;37.59;99201.67;1770273;78;21198;-69
2021/09/02 08:06:50;;;;;;;6.92;3.02;;;;;;;24.22;37.67;99209.56;1771732;78;21121;-69
2021/09/02 08:09:16;;;;;;;3.22;2.80;;;;;;;24.09;37.00;99210.09;1768763;79;21556;-70
2021/09/02 08:11:43;;;;;;;2.70;2.50;;;;;;;23.94;37.08;99198.13;1769135;79;21030;-77
2021/09/02 08:14:10;;;;;;;5.00;3.00;;;;;;;23.84;37.00;99206.26;1756519;80;21057;-71
2021/09/02 08:16:36;;;;;;;3.25;2.40;;;;;;;23.73;36.95;99218.94;1769846;79;21051;-72
2021/09/02 08:19:04;;;;;;;5.20;2.87;;;;;;;23.65;37.21;99211.88;1774582;79;21017;-75
2021/09/02 08:21:30;;;;;;;5.47;2.60;;;;;;;23.57;37.26;99211.05;1770531;79;21515;-75
2021/09/02 08:23:58;;;;;;;4.47;2.83;;;;;;;23.51;37.27;99217.00;1760180;79;21716;-75
2021/09/02 08:26:27;;;;;;;4.15;2.60;;;;;;;23.45;37.26;99211.25;1757611;80;21101;-74
2021/09/02 08:28:55;;;;;;;4.05;2.80;;;;;;;23.40;37.43;99216.68;1762058;80;21760;-72
2021/09/02 08:31:23;;;;;;;4.47;2.58;;;;;;;23.34;37.49;99213.94;1759357;80;21021;-74
2021/09/02 08:33:50;;;;;;;6.87;2.60;;;;;;;23.32;37.12;99216.65;1767418;79;21080;-74
2021/09/02 08:36:17;;;;;;;7.12;3.00;;;;;;;23.27;37.42;99210.66;1766511;79;21033;-76
2021/09/02 08:38:47;;;;;;;4.53;2.47;;;;;;;23.26;37.19;99210.94;1776257;79;21034;-76
2021/09/02 08:41:12;;;;;;;8.00;2.40;;;;;;;23.24;36.89;99200.36;1776210;80;22402;-75
2021/09/02 08:43:39;;;;;;;3.95;2.72;;;;;;;23.24;36.56;99200.91;1774865;80;21018;-75
2021/09/02 08:46:05;;;;;;;4.58;2.37;;;;;;;23.24;36.75;99199.55;1749308;80;21058;-77
2021/09/02 08:48:32;;;;;;;7.17;2.30;;;;;;;23.23;36.67;99200.62;1773908;80;21045;-75
2021/09/02 08:51:03;;;;;;;3.00;2.27;;;;;;;23.22;36.27;99194.91;1771619;79;21112;-76
2021/09/02 08:53:30;;;;;;;5.67;2.60;;;;;;;23.18;36.47;99198.71;1764580;79;21125;-75
2021/09/02 08:55:57;;;;;;;14.43;8.20;;;;;;;23.16;36.58;99202.23;1775866;79;21539;-76
2021/09/02 08:58:23;;;;;;;7.58;4.15;;;;;;;23.14;36.58;99193.52;1749417;79;21607;-75
2021/09/02 09:00:50;;;;;;;5.45;3.40;;;;;;;23.14;36.67;99207.06;1724874;81;21100;-75
2021/09/02 09:03:19;;;;;;;4.05;2.58;;;;;;;23.15;36.84;99203.29;1742860;81;21127;-74
2021/09/02 09:05:53;;;;;;;2.60;2.37;;;;;;;23.16;36.86;99206.29;1723791;81;21132;-75
2021/09/02 09:08:19;;;;;;;4.03;2.80;;;;;;;23.19;36.61;99196.81;1772529;79;21053;-69
2021/09/02 09:10:45;;;;;;;4.65;2.60;;;;;;;23.20;36.58;99196.55;1753547;80;21167;-68
2021/09/02 09:13:12;;;;;;;5.90;2.52;;;;;;;23.21;36.19;99203.58;1774141;80;21077;-69
2021/09/02 09:15:45;;;;;;;5.83;2.70;;;;;;;23.20;36.00;99198.42;1774144;80;21073;-77
2021/09/02 09:18:24;;;;;;;3.60;2.37;;;;;;;23.17;35.60;99197.07;1771253;80;21135;-76
2021/09/02 09:21:14;;;;;;;4.53;2.27;;;;;;;23.15;35.46;99208.71;1783053;79;21108;-73
2021/09/02 09:23:57;;;;;;;3.67;2.40;;;;;;;23.13;35.97;99198.67;1792047;78;21003;-71
2021/09/02 09:26:24;;;;;;;4.75;2.50;;;;;;;23.16;36.13;99202.23;1746745;81;21048;-72
2021/09/02 09:28:58;;;;;;;6.70;2.65;;;;;;;23.20;35.81;99212.81;1788144;78;21068;-73
2021/09/02 09:31:33;;;;;;;3.00;2.45;;;;;;;23.20;35.69;99207.39;1783900;79;21191;-73
2021/09/02 09:34:03;;;;;;;3.10;2.35;;;;;;;23.23;35.55;99209.55;1763671;80;21605;-73
2021/09/02 09:36:32;;;;;;;3.85;2.37;;;;;;;23.22;35.50;99209.81;1786536;78;21093;-75
2021/09/02 09:39:12;;;;;;;3.27;2.20;;;;;;;23.22;35.49;99217.42;1778222;80;20997;-71
2021/09/02 09:41:41;;;;;;;2.70;2.00;;;;;;;23.20;35.42;99216.87;1772066;78;21528;-72
2021/09/02 09:44:28;;;;;;;2.75;2.22;;;;;;;23.15;35.14;99227.12;1777638;78;21086;-72
2021/09/02 09:47:12;;;;;;;2.90;2.20;;;;;;;23.07;35.33;99220.86;1773727;78;21057;-71
2021/09/02 09:49:55;;;;;;;5.00;2.30;;;;;;;23.01;35.56;99223.79;1740379;80;21020;-73
2021/09/02 09:52:27;;;;;;;4.45;2.70;;;;;;;22.96;35.76;99221.30;1777788;78;21064;-71
2021/09/02 09:55:13;;;;;;;9.63;5.33;;;;;;;22.90;35.29;99233.19;1791571;78;21032;-72
2021/09/02 09:57:41;;;;;;;6.70;4.20;;;;;;;22.83;34.98;99231.27;1784317;78;21116;-70
2021/09/02 10:00:14;;;;;;;7.75;3.92;;;;;;;22.80;35.06;99230.42;1801877;78;21068;-73
2021/09/02 10:02:43;;;;;;;5.35;3.10;;;;;;;22.80;35.14;99229.63;1787354;78;21064;-72
2021/09/02 10:05:11;;;;;;;6.33;2.47;;;;;;;22.82;35.43;99229.63;1774461;80;21035;-74
2021/09/02 10:07:40;;;;;;;5.65;2.52;;;;;;;22.85;35.24;99231.83;1760399;79;21129;-76
2021/09/02 10:10:09;;;;;;;4.47;2.42;;;;;;;22.90;35.24;99239.96;1736807;80;21090;-73
2021/09/02 10:12:37;;;;;;;2.67;2.10;;;;;;;22.92;34.98;99233.73;1772721;80;21140;-74
2021/09/02 10:15:08;;;;;;;4.53;2.30;;;;;;;22.94;34.89;99242.42;1774060;80;21100;-73
2021/09/02 10:17:36;;;;;;;6.67;2.30;;;;;;;22.93;34.61;99242.16;1763500;80;20998;-71
2021/09/02 10:20:16;;;;;;;3.72;2.08;;;;;;;22.91;34.74;99250.28;1770576;78;21114;-70
2021/09/02 10:22:44;;;;;;;3.87;2.10;;;;;;;22.89;35.18;99259.17;1780676;78;21270;-68
2021/09/02 10:25:35;;;;;;;5.25;2.60;;;;;;;22.91;35.62;99270.59;1782437;78;21017;-67
2021/09/02 10:28:09;;;;;;;3.90;2.47;;;;;;;22.97;35.88;99285.80;1750459;80;21049;-67
2021/09/02 10:30:47;;;;;;;3.33;2.60;;;;;;;23.04;36.25;99282.33;1789402;78;21085;-66
2021/09/02 10:33:46;;;;;;;6.35;3.20;;;;;;;23.11;36.76;99278.86;1787963;79;21028;-67
2021/09/02 10:36:21;;;;;;;4.33;2.33;;;;;;;23.21;37.37;99278.09;1776637;79;21156;-68
2021/09/02 10:38:55;;;;;;;5.10;2.33;;;;;;;23.31;37.84;99263.78;1772263;78;21460;-67
2021/09/02 10:41:40;;;;;;;2.65;1.92;;;;;;;23.42;37.67;99261.95;1749119;80;21648;-66
2021/09/02 10:44:10;;;;;;;3.30;2.33;;;;;;;23.52;37.64;99270.12;1768116;80;21494;-69
2021/09/02 10:46:46;;;;;;;5.90;2.20;;;;;;;23.62;37.70;99267.44;1759512;80;21061;-69
2021/09/02 10:49:27;;;;;;;3.12;2.47;;;;;;;23.73;37.42;99253.38;1753836;80;21087;-68
2021/09/02 10:51:57;;;;;;;4.12;2.12;;;;;;;23.86;37.49;99260.24;1740405;80;22023;-67
2021/09/02 10:54:36;;;;;;;3.35;2.50;;;;;;;23.94;37.20;99270.56;1736791;80;21092;-67
2021/09/02 10:57:12;;;;;;;2.50;2.00;;;;;;;24.01;36.82;99272.48;1792017;79;21285;-67
2021/09/02 10:59:52;;;;;;;3.95;2.83;;;;;;;24.07;36.36;99291.75;1773846;79;20997;-67
2021/09/02 11:02:29;;;;;;;5.95;2.85;;;;;;;24.14;36.76;99284.70;1772218;79;21112;-69
2021/09/02 11:05:04;;;;;;;8.10;3.60;;;;;;;24.20;36.26;99281.45;1774255;79;21065;-68
2021/09/02 11:07:46;;;;;;;5.00;3.05;;;;;;;24.23;36.08;99283.64;1771067;79;21006;-69
2021/09/02 11:10:19;;;;;;;5.30;3.00;;;;;;;24.26;35.83;99285.80;1776822;79;21081;-69
2021/09/02 11:12:47;;;;;;;4.67;2.60;;;;;;;24.28;35.65;99291.77;1769087;79;21470;-69
2021/09/02 11:15:23;;;;;;;5.33;2.83;;;;;;;24.30;35.88;99295.06;1775444;80;20991;-69
2021/09/02 11:17:59;;;;;;;2.58;1.95;;;;;;;24.32;35.75;99301.84;1771116;80;21050;-68
2021/09/02 11:20:28;;;;;;;3.62;2.20;;;;;;;24.38;35.44;99305.38;1767585;79;21127;-68
2021/09/02 11:23:17;;;;;;;3.02;2.10;;;;;;;24.43;35.08;99301.84;1773101;79;21022;-68
2021/09/02 11:25:50;;;;;;;3.47;2.22;;;;;;;24.48;34.79;99294.52;1771394;79;21565;-68
2021/09/02 11:28:21;;;;;;;6.72;2.50;;;;;;;24.54;34.52;99289.94;1769070;79;21772;-68
2021/09/02 11:30:53;;;;;;;4.08;2.45;;;;;;;24.58;34.60;99295.09;1761324;79;21061;-67
2021/09/02 11:33:20;;;;;;;4.42;2.47;;;;;;;24.63;34.68;99316.02;1764115;79;21028;-68
2021/09/02 11:35:57;;;;;;;3.17;2.10;;;;;;;24.64;34.85;99319.00;1772570;79;21104;-67
2021/09/02 11:38:23;;;;;;;3.60;2.30;;;;;;;24.64;34.91;99323.06;1761392;79;22034;-68
2021/09/02 11:40:50;;;;;;;3.35;2.35;;;;;;;24.64;35.12;99329.86;1759088;79;21581;-69
2021/09/02 11:43:17;;;;;;;2.55;1.92;;;;;;;24.64;35.55;99334.73;1725564;80;21616;-72
2021/09/02 11:45:53;;;;;;;3.25;2.20;;;;;;;24.64;35.80;99330.66;1765574;79;21000;-71